Time;durP1;ratioP1;P1;durP2;ratioP2;P2;SDS_P1;SDS_P2;PMS_P1;PMS_P2;Temp;Humidity;BMP_temperature;BMP_pressure;BME280_temperature;BME280_humidity;BME280_pressure;Samples;Min_cycle;Max_cycle;Signal;HPM_P1;HPM_P2
2022/08/13 00:02:17;;;;;;;1.50;1.40;;;19.90;55.60;;;;;;5051175;28;20209;-61
2022/08/13 00:07:22;;;;;;;3.97;1.60;;;19.80;55.70;;;;;;5049725;28;20583;-60
2022/08/13 00:09:48;;;;;;;1.50;1.40;;;19.80;56.10;;;;;;5051864;28;20166;-61
2022/08/13 00:15:05;;;;;;;1.80;1.30;;;19.70;56.20;;;;;;5051822;28;20235;-61
2022/08/13 00:17:33;;;;;;;1.60;1.50;;;19.70;56.30;;;;;;5051001;28;20185;-61
2022/08/13 00:19:58;;;;;;;3.10;1.60;;;19.70;56.40;;;;;;5051377;28;20227;-61
2022/08/13 00:22:25;;;;;;;1.23;1.10;;;19.70;56.60;;;;;;5049309;28;20216;-61
2022/08/13 00:24:51;;;;;;;1.55;1.45;;;19.60;56.60;;;;;;5051420;28;20182;-60
2022/08/13 00:27:17;;;;;;;1.95;1.23;;;19.60;56.70;;;;;;5050782;28;20185;-61
2022/08/13 00:29:43;;;;;;;1.60;1.50;;;19.50;56.80;;;;;;5052140;28;20184;-61
2022/08/13 00:32:09;;;;;;;2.08;1.50;;;19.50;56.90;;;;;;5054963;28;20203;-61
2022/08/13 00:34:34;;;;;;;1.42;1.33;;;19.40;57.00;;;;;;5055737;28;20177;-61
2022/08/13 00:37:00;;;;;;;1.27;1.20;;;19.40;57.20;;;;;;5054939;28;20197;-61
2022/08/13 00:39:26;;;;;;;1.48;1.38;;;19.30;57.60;;;;;;5055305;28;20196;-60
2022/08/13 00:41:51;;;;;;;2.30;1.30;;;19.30;57.70;;;;;;5054547;28;20738;-61
2022/08/13 00:44:18;;;;;;;1.30;1.20;;;19.30;58.70;;;;;;5055256;28;20209;-61
2022/08/13 00:46:44;;;;;;;8.85;1.95;;;19.10;59.10;;;;;;5054703;28;20644;-61
2022/08/13 00:49:12;;;;;;;1.65;1.45;;;19.10;59.30;;;;;;5054901;28;20193;-61
2022/08/13 00:51:39;;;;;;;1.27;1.17;;;19.00;59.50;;;;;;5055035;28;20235;-60
2022/08/13 00:54:14;;;;;;;3.42;1.40;;;18.80;59.80;;;;;;5054814;28;20644;-61
2022/08/13 00:56:40;;;;;;;5.80;1.40;;;18.80;60.30;;;;;;5055268;28;20184;-60
2022/08/13 00:59:11;;;;;;;2.40;1.30;;;18.70;60.70;;;;;;5054338;28;20250;-61
2022/08/13 01:01:39;;;;;;;2.67;1.42;;;18.60;60.90;;;;;;5054842;28;20225;-60
2022/08/13 01:04:07;;;;;;;1.40;1.30;;;18.50;61.20;;;;;;5047671;28;20196;-61
2022/08/13 01:06:34;;;;;;;1.17;1.17;;;18.60;61.50;;;;;;5035072;28;20261;-60
2022/08/13 01:08:59;;;;;;;4.22;1.20;;;18.50;62.20;;;;;;5051943;28;20609;-60
2022/08/13 01:11:27;;;;;;;1.98;1.60;;;18.50;61.60;;;;;;5055032;28;20286;-61
2022/08/13 01:13:53;;;;;;;3.05;1.30;;;18.50;61.80;;;;;;5053771;28;20185;-60
2022/08/13 01:16:20;;;;;;;1.63;1.50;;;18.40;62.00;;;;;;5053441;28;20223;-60
2022/08/13 01:18:50;;;;;;;1.40;1.30;;;18.40;62.20;;;;;;5054063;28;20287;-61
2022/08/13 01:21:19;;;;;;;1.35;1.30;;;18.40;62.20;;;;;;5054250;28;20207;-61
2022/08/13 01:23:48;;;;;;;2.08;1.33;;;18.30;62.20;;;;;;5054713;28;20641;-61
2022/08/13 01:26:15;;;;;;;2.17;1.30;;;18.30;62.20;;;;;;5053834;28;20269;-60
2022/08/13 01:28:42;;;;;;;1.60;1.50;;;18.30;62.50;;;;;;5035240;28;20186;-60
2022/08/13 01:31:09;;;;;;;1.40;1.30;;;18.30;62.50;;;;;;5054070;28;20655;-60
2022/08/13 01:33:35;;;;;;;1.67;1.30;;;18.20;62.40;;;;;;5053136;28;20694;-60
2022/08/13 01:36:06;;;;;;;3.22;1.40;;;18.20;62.40;;;;;;5053863;28;20193;-60
2022/08/13 01:38:33;;;;;;;2.38;1.45;;;18.20;62.40;;;;;;5054321;28;20174;-61
2022/08/13 01:40:59;;;;;;;1.45;1.35;;;18.20;62.60;;;;;;5052779;28;20644;-61
2022/08/13 01:43:30;;;;;;;1.98;1.30;;;18.10;62.30;;;;;;5053643;28;20213;-61
2022/08/13 01:46:00;;;;;;;2.25;1.30;;;18.20;62.40;;;;;;5053960;28;20378;-60
2022/08/13 01:51:23;;;;;;;1.30;1.20;;;18.20;62.60;;;;;;5053727;28;20189;-61
2022/08/13 01:53:51;;;;;;;2.35;1.67;;;18.10;62.30;;;;;;5053448;28;20271;-61
2022/08/13 01:56:21;;;;;;;1.38;1.30;;;18.10;62.30;;;;;;5053940;28;20633;-60
2022/08/13 01:58:50;;;;;;;2.55;1.35;;;18.10;62.30;;;;;;5053447;28;20174;-61
2022/08/13 02:01:16;;;;;;;4.28;1.50;;;18.10;62.10;;;;;;5053474;28;20253;-60
2022/08/13 02:03:44;;;;;;;1.65;1.55;;;18.10;61.70;;;;;;5053235;28;20605;-60
2022/08/13 02:06:11;;;;;;;1.60;1.50;;;18.10;61.70;;;;;;5053736;28;20227;-61
2022/08/13 02:08:40;;;;;;;2.38;1.30;;;18.00;61.80;;;;;;5052856;28;20196;-60
2022/08/13 02:11:06;;;;;;;3.08;1.40;;;18.00;62.20;;;;;;5051777;28;20605;-61
2022/08/13 02:13:32;;;;;;;1.35;1.25;;;18.00;62.20;;;;;;5052704;28;20702;-61
2022/08/13 02:15:57;;;;;;;2.85;1.30;;;18.10;62.10;;;;;;5053710;28;20186;-61
2022/08/13 02:18:26;;;;;;;1.63;1.48;;;18.00;62.10;;;;;;5053622;28;20629;-60
2022/08/13 02:20:58;;;;;;;2.17;1.33;;;18.00;62.20;;;;;;5052923;28;20265;-60
2022/08/13 02:23:33;;;;;;;1.60;1.50;;;18.00;62.20;;;;;;5053509;28;20209;-61
2022/08/13 02:26:05;;;;;;;1.42;1.33;;;17.90;62.30;;;;;;5053316;28;20192;-60
2022/08/13 02:28:39;;;;;;;1.50;1.40;;;17.90;62.60;;;;;;5053339;28;20196;-61
2022/08/13 02:31:06;;;;;;;1.30;1.20;;;17.90;62.70;;;;;;5052417;28;20678;-60
2022/08/13 02:33:33;;;;;;;1.25;1.23;;;17.90;62.90;;;;;;5053480;28;20205;-60
2022/08/13 02:35:59;;;;;;;2.13;1.60;;;17.80;63.10;;;;;;5052850;28;20268;-61
2022/08/13 02:38:24;;;;;;;1.95;1.38;;;17.80;63.00;;;;;;5053018;28;20265;-61
2022/08/13 02:43:34;;;;;;;2.25;1.60;;;17.80;63.40;;;;;;5052879;28;20275;-61
2022/08/13 02:46:00;;;;;;;2.78;1.52;;;17.80;63.50;;;;;;5053027;28;20181;-61
2022/08/13 02:48:26;;;;;;;1.60;1.42;;;17.80;63.40;;;;;;5052935;28;20184;-61
2022/08/13 02:50:55;;;;;;;2.33;1.65;;;17.80;63.80;;;;;;5052637;28;20592;-61
2022/08/13 02:53:21;;;;;;;2.42;1.73;;;17.80;63.80;;;;;;5052622;28;20190;-60
2022/08/13 02:55:47;;;;;;;1.92;1.30;;;17.70;63.90;;;;;;5052670;28;20296;-61
2022/08/13 02:58:14;;;;;;;1.50;1.40;;;17.70;64.00;;;;;;5052385;28;20185;-60
2022/08/13 03:00:41;;;;;;;2.50;1.50;;;17.70;64.00;;;;;;5052520;28;20229;-60
2022/08/13 03:03:08;;;;;;;2.10;1.67;;;17.70;64.30;;;;;;5052380;28;20217;-60
2022/08/13 03:05:34;;;;;;;2.10;1.38;;;17.60;64.60;;;;;;5052362;28;20182;-60
2022/08/13 03:08:03;;;;;;;2.03;1.45;;;17.60;64.80;;;;;;5052526;28;20193;-60
2022/08/13 03:10:29;;;;;;;1.80;1.33;;;17.50;65.00;;;;;;5052405;28;20182;-60
2022/08/13 03:13:07;;;;;;;1.50;1.40;;;17.40;65.30;;;;;;5051826;28;20252;-60
2022/08/13 03:15:34;;;;;;;2.33;1.40;;;17.40;65.60;;;;;;5032657;28;20174;-60
2022/08/13 03:18:00;;;;;;;1.63;1.33;;;17.40;65.90;;;;;;5050827;28;20640;-60
2022/08/13 03:20:25;;;;;;;1.90;1.30;;;17.30;66.10;;;;;;5051853;28;20182;-60
2022/08/13 03:22:57;;;;;;;2.20;1.70;;;17.30;66.40;;;;;;5051766;28;20213;-60
2022/08/13 03:25:29;;;;;;;1.80;1.70;;;17.20;66.60;;;;;;5052290;28;20541;-60
2022/08/13 03:27:55;;;;;;;1.20;1.20;;;17.20;66.90;;;;;;5051748;28;20698;-60
2022/08/13 03:30:22;;;;;;;1.60;1.50;;;17.20;66.90;;;;;;5052378;28;20213;-60
2022/08/13 03:32:49;;;;;;;2.00;1.60;;;17.10;67.30;;;;;;5051932;28;20178;-61
2022/08/13 03:35:25;;;;;;;1.60;1.50;;;17.10;67.50;;;;;;5051216;28;20185;-61
2022/08/13 03:37:53;;;;;;;1.40;1.27;;;17.00;67.70;;;;;;5051582;28;20185;-60
2022/08/13 03:40:21;;;;;;;1.33;1.23;;;17.00;67.80;;;;;;5051863;28;20201;-60
2022/08/13 03:42:50;;;;;;;3.40;1.50;;;17.00;68.30;;;;;;5051347;28;20213;-60
2022/08/13 03:45:17;;;;;;;2.30;1.63;;;17.00;68.40;;;;;;5052238;28;20256;-60
2022/08/13 03:47:43;;;;;;;1.55;1.45;;;16.90;68.40;;;;;;5051738;28;20181;-60
2022/08/13 03:50:11;;;;;;;1.60;1.50;;;16.90;68.50;;;;;;5051735;28;20268;-60
2022/08/13 03:52:38;;;;;;;3.60;1.73;;;16.80;68.70;;;;;;5051502;28;20181;-60
2022/08/13 03:55:09;;;;;;;1.63;1.52;;;16.80;69.10;;;;;;5051543;28;20185;-60
2022/08/13 03:57:40;;;;;;;1.70;1.60;;;16.80;69.20;;;;;;5051440;28;20574;-60
2022/08/13 04:00:10;;;;;;;1.50;1.40;;;16.70;69.40;;;;;;5051511;28;20592;-60
2022/08/13 04:02:40;;;;;;;2.00;1.50;;;16.70;69.50;;;;;;5051231;28;20293;-60
2022/08/13 04:05:11;;;;;;;1.60;1.50;;;16.60;69.40;;;;;;5033930;28;20541;-60
2022/08/13 04:07:36;;;;;;;5.82;1.55;;;16.60;69.50;;;;;;5044644;28;20189;-60
2022/08/13 04:10:04;;;;;;;1.42;1.30;;;16.60;69.60;;;;;;5051722;28;20173;-60
2022/08/13 04:12:30;;;;;;;1.60;1.50;;;16.60;69.50;;;;;;5050814;28;20185;-60
2022/08/13 04:14:55;;;;;;;1.60;1.50;;;16.60;69.60;;;;;;5050543;28;20197;-60
2022/08/13 04:17:21;;;;;;;3.33;1.60;;;16.60;69.70;;;;;;5051311;28;20181;-60
2022/08/13 04:19:46;;;;;;;2.42;1.50;;;16.60;70.00;;;;;;5051264;28;20185;-60
2022/08/13 04:22:13;;;;;;;1.70;1.60;;;16.60;69.90;;;;;;5050507;28;20213;-60
2022/08/13 04:24:39;;;;;;;2.05;1.85;;;16.60;70.10;;;;;;5051582;28;20521;-60
2022/08/13 04:27:05;;;;;;;1.60;1.50;;;16.60;70.20;;;;;;5050801;28;20599;-60
2022/08/13 04:29:31;;;;;;;1.60;1.50;;;16.60;70.40;;;;;;5051374;28;20256;-60
2022/08/13 04:31:59;;;;;;;1.70;1.60;;;16.60;70.50;;;;;;5050787;28;20231;-60
2022/08/13 04:34:27;;;;;;;2.00;1.77;;;16.60;70.50;;;;;;5051501;28;20189;-60
2022/08/13 04:36:52;;;;;;;1.98;1.70;;;16.60;70.60;;;;;;5051047;28;20637;-60
2022/08/13 04:39:19;;;;;;;3.38;1.60;;;16.70;70.70;;;;;;5050629;28;20193;-61
2022/08/13 04:41:45;;;;;;;2.55;1.60;;;16.70;70.60;;;;;;5051047;28;20585;-60
2022/08/13 04:44:11;;;;;;;2.05;1.60;;;16.70;70.30;;;;;;5050682;28;20185;-60
2022/08/13 04:46:38;;;;;;;1.70;1.60;;;16.70;70.00;;;;;;5051346;28;20169;-60
2022/08/13 04:49:04;;;;;;;2.17;1.48;;;16.80;69.80;;;;;;5050572;28;20592;-60
2022/08/13 04:51:31;;;;;;;2.35;1.60;;;16.80;69.70;;;;;;5052893;28;20178;-60
2022/08/13 04:53:57;;;;;;;2.65;1.38;;;16.80;70.00;;;;;;5052243;28;20288;-60
2022/08/13 04:56:22;;;;;;;1.20;1.20;;;16.80;69.80;;;;;;5049393;28;20333;-61
2022/08/13 04:58:48;;;;;;;2.13;1.45;;;16.90;69.60;;;;;;5050484;28;20517;-60
2022/08/13 05:01:13;;;;;;;1.50;1.40;;;16.90;69.40;;;;;;5050412;28;20292;-60
2022/08/13 05:03:45;;;;;;;1.98;1.30;;;17.00;69.50;;;;;;5049749;28;20272;-60
2022/08/13 05:06:12;;;;;;;2.50;1.50;;;17.10;69.40;;;;;;5050088;28;20181;-60
2022/08/13 05:08:40;;;;;;;1.20;1.20;;;17.30;69.30;;;;;;5050883;28;20181;-60
2022/08/13 05:11:07;;;;;;;3.40;1.45;;;17.50;69.10;;;;;;5050800;28;20186;-60
2022/08/13 05:13:36;;;;;;;3.80;1.70;;;17.80;68.30;;;;;;5051052;28;20178;-60
2022/08/13 05:16:08;;;;;;;1.30;1.23;;;18.20;67.60;;;;;;5052297;28;20170;-60
2022/08/13 05:18:37;;;;;;;1.40;1.30;;;18.60;66.40;;;;;;5054351;28;20214;-60
2022/08/13 05:21:05;;;;;;;1.50;1.40;;;19.10;65.30;;;;;;5054351;28;20200;-61
2022/08/13 05:23:32;;;;;;;2.35;1.33;;;19.50;64.20;;;;;;5053968;28;20758;-61
2022/08/13 05:25:59;;;;;;;1.75;1.23;;;20.00;63.20;;;;;;5054828;28;20174;-61
2022/08/13 05:28:25;;;;;;;1.33;1.23;;;20.40;61.80;;;;;;5054169;28;20228;-60
2022/08/13 05:30:51;;;;;;;1.73;1.30;;;20.90;60.80;;;;;;5054349;28;20200;-61
2022/08/13 05:33:23;;;;;;;4.10;1.30;;;21.20;59.70;;;;;;5054014;28;20652;-60
2022/08/13 05:35:52;;;;;;;1.48;1.38;;;21.70;59.00;;;;;;5054397;28;20268;-60
2022/08/13 05:38:23;;;;;;;1.73;1.40;;;22.10;58.20;;;;;;5053937;28;20706;-60
2022/08/13 05:40:52;;;;;;;3.28;1.40;;;22.40;57.70;;;;;;5054668;28;20184;-61
2022/08/13 05:43:21;;;;;;;1.45;1.35;;;22.80;57.00;;;;;;5053338;28;20217;-61
2022/08/13 05:45:57;;;;;;;3.05;1.40;;;23.10;56.50;;;;;;5054430;28;20636;-61
2022/08/13 05:48:23;;;;;;;1.38;1.27;;;23.50;55.80;;;;;;5053973;28;20191;-61
2022/08/13 05:50:49;;;;;;;2.08;1.70;;;23.90;54.80;;;;;;5054023;28;20180;-61
2022/08/13 05:53:15;;;;;;;1.45;1.35;;;24.40;54.20;;;;;;5053345;28;20174;-60
2022/08/13 05:55:41;;;;;;;2.00;1.60;;;24.70;53.30;;;;;;5054295;28;20178;-61
2022/08/13 05:58:10;;;;;;;2.90;1.50;;;25.10;52.80;;;;;;5053373;28;20686;-60
2022/08/13 06:03:29;;;;;;;18.90;13.13;;;25.90;51.40;;;;;;5052986;28;20275;-60
2022/08/13 06:05:57;;;;;;;6.97;5.25;;;26.40;50.80;;;;;;5053236;28;20735;-60
2022/08/13 06:08:29;;;;;;;4.60;2.40;;;26.80;50.40;;;;;;5053615;28;20219;-60
2022/08/13 06:11:01;;;;;;;3.75;3.33;;;27.30;49.00;;;;;;5053640;28;20181;-60
2022/08/13 06:13:28;;;;;;;6.10;3.13;;;27.60;48.20;;;;;;5048002;28;20190;-59
2022/08/13 06:15:58;;;;;;;2.90;2.63;;;27.90;47.40;;;;;;5051386;28;20178;-61
2022/08/13 06:18:35;;;;;;;4.82;2.42;;;28.10;47.90;;;;;;5052181;28;20173;-59
2022/08/13 06:21:04;;;;;;;2.17;2.00;;;28.30;46.70;;;;;;5052335;28;20173;-60
2022/08/13 06:23:34;;;;;;;1.83;1.70;;;28.70;46.40;;;;;;5052604;28;20213;-60
2022/08/13 06:26:00;;;;;;;1.92;1.50;;;28.80;45.80;;;;;;5052051;28;20513;-60
2022/08/13 06:28:29;;;;;;;1.60;1.50;;;29.20;45.80;;;;;;5052926;28;20181;-60
2022/08/13 06:30:58;;;;;;;1.40;1.30;;;29.70;45.20;;;;;;5053850;28;20178;-60
2022/08/13 06:33:25;;;;;;;2.40;1.33;;;30.10;44.50;;;;;;5053476;28;20178;-60
2022/08/13 06:35:59;;;;;;;1.95;1.30;;;30.40;43.70;;;;;;5054068;28;20530;-61
2022/08/13 06:38:48;;;;;;;3.22;1.40;;;30.30;42.90;;;;;;5052972;28;20188;-60
2022/08/13 06:41:15;;;;;;;1.92;1.40;;;29.80;43.20;;;;;;5052904;28;20181;-60
2022/08/13 06:43:43;;;;;;;1.23;1.17;;;29.70;43.80;;;;;;5053419;28;20358;-60
2022/08/13 06:46:11;;;;;;;1.35;1.25;;;29.50;43.90;;;;;;5053166;28;20679;-59
2022/08/13 06:48:42;;;;;;;1.50;1.40;;;29.70;44.00;;;;;;5052809;28;20196;-59
2022/08/13 06:51:09;;;;;;;2.25;1.23;;;29.90;43.30;;;;;;5053181;28;20180;-59
2022/08/13 06:53:36;;;;;;;1.52;1.40;;;30.00;43.40;;;;;;5052845;28;20177;-58
2022/08/13 06:56:06;;;;;;;1.63;1.40;;;29.80;43.30;;;;;;5052566;28;20212;-58
2022/08/13 06:58:34;;;;;;;1.30;1.20;;;29.80;43.60;;;;;;5053244;28;20174;-58
2022/08/13 07:01:00;;;;;;;2.03;1.25;;;29.90;43.50;;;;;;5052694;28;20256;-58
2022/08/13 07:03:28;;;;;;;2.05;1.38;;;30.00;43.30;;;;;;5052608;28;20224;-58
2022/08/13 07:05:56;;;;;;;1.40;1.30;;;30.10;43.00;;;;;;5052452;28;20243;-57
2022/08/13 07:08:26;;;;;;;1.20;1.10;;;30.00;43.30;;;;;;5053049;28;20181;-56
2022/08/13 07:13:49;;;;;;;1.50;1.40;;;30.30;43.30;;;;;;5052773;28;20278;-59
2022/08/13 07:16:16;;;;;;;1.48;1.38;;;30.70;42.90;;;;;;5052236;28;20267;-56
2022/08/13 07:18:42;;;;;;;2.97;1.15;;;31.10;42.30;;;;;;5052768;28;20185;-58
2022/08/13 07:21:10;;;;;;;1.70;1.60;;;31.40;42.80;;;;;;5052391;28;20178;-57
2022/08/13 07:23:40;;;;;;;4.30;2.92;;;31.80;41.40;;;;;;5052447;28;20262;-58
2022/08/13 07:26:06;;;;;;;2.33;2.13;;;32.00;41.10;;;;;;5052212;28;20264;-57
2022/08/13 07:28:33;;;;;;;1.65;1.40;;;31.80;41.30;;;;;;5052654;28;20192;-58
2022/08/13 07:30:59;;;;;;;2.72;2.40;;;32.00;41.40;;;;;;5051332;28;20231;-58
2022/08/13 07:33:26;;;;;;;2.92;1.40;;;32.30;41.30;;;;;;5051315;28;20185;-58
2022/08/13 07:35:52;;;;;;;2.75;2.15;;;32.90;40.80;;;;;;5052419;28;20231;-59
2022/08/13 07:38:17;;;;;;;9.30;7.35;;;33.50;40.00;;;;;;5040081;28;20182;-59
2022/08/13 07:40:50;;;;;;;4.95;4.00;;;33.70;39.50;;;;;;5048589;28;20185;-59
2022/08/13 07:43:19;;;;;;;1.40;1.30;;;34.10;40.10;;;;;;5031996;28;20300;-58
2022/08/13 07:46:02;;;;;;;3.63;1.80;;;34.30;38.70;;;;;;5048216;28;20180;-59
2022/08/13 07:48:31;;;;;;;1.70;1.60;;;34.30;38.30;;;;;;5051778;28;20593;-59
2022/08/13 07:50:58;;;;;;;2.88;1.80;;;34.60;38.50;;;;;;5052060;28;20260;-59
2022/08/13 07:53:24;;;;;;;3.55;2.38;;;34.70;38.00;;;;;;5051756;28;20723;-58
2022/08/13 07:55:51;;;;;;;1.58;1.40;;;34.70;37.90;;;;;;5040398;28;20180;-60
2022/08/13 07:58:16;;;;;;;3.20;2.03;;;34.70;38.30;;;;;;5051735;28;20714;-59
2022/08/13 08:00:44;;;;;;;2.95;2.70;;;34.80;37.90;;;;;;5051533;28;20247;-59
2022/08/13 08:03:12;;;;;;;2.03;1.85;;;34.90;37.70;;;;;;5051619;28;20618;-59
2022/08/13 08:05:41;;;;;;;2.00;1.42;;;35.00;37.80;;;;;;5051283;28;20180;-58
2022/08/13 08:08:10;;;;;;;1.77;1.40;;;35.10;37.50;;;;;;5051689;28;20640;-59
2022/08/13 08:10:42;;;;;;;3.65;1.65;;;35.10;38.20;;;;;;5050664;28;20542;-58
2022/08/13 08:13:13;;;;;;;4.05;3.60;;;35.10;37.80;;;;;;5049307;28;20177;-59
2022/08/13 08:15:45;;;;;;;2.55;1.63;;;35.00;38.70;;;;;;5052726;28;20252;-59
2022/08/13 08:18:11;;;;;;;1.60;1.50;;;35.10;38.10;;;;;;5051508;28;20173;-59
2022/08/13 08:20:37;;;;;;;2.33;2.13;;;35.30;37.30;;;;;;5051516;28;20173;-59
2022/08/13 08:23:03;;;;;;;6.28;5.25;;;35.20;38.30;;;;;;5051669;28;20208;-59
2022/08/13 08:25:29;;;;;;;1.50;1.40;;;35.30;37.40;;;;;;5051685;28;20185;-59
2022/08/13 08:27:55;;;;;;;1.75;1.65;;;35.20;37.70;;;;;;5051366;28;20180;-59
2022/08/13 08:30:21;;;;;;;1.50;1.40;;;35.40;37.80;;;;;;5051633;28;20656;-59
2022/08/13 08:32:52;;;;;;;1.60;1.50;;;35.70;37.30;;;;;;5049989;28;20230;-59
2022/08/13 08:35:19;;;;;;;2.30;2.15;;;35.80;36.60;;;;;;5050969;28;20188;-59
2022/08/13 08:43:16;;;;;;;1.42;1.33;;;36.00;36.80;;;;;;5050724;28;20216;-60
2022/08/13 08:45:42;;;;;;;4.00;1.30;;;36.30;36.50;;;;;;5042979;28;20223;-60
2022/08/13 08:48:08;;;;;;;5.40;1.30;;;36.40;35.90;;;;;;5040799;28;20230;-60
2022/08/13 08:50:33;;;;;;;1.42;1.30;;;36.00;35.80;;;;;;5051938;28;20177;-59
2022/08/13 08:53:19;;;;;;;2.05;1.88;;;35.60;37.00;;;;;;5054586;28;20189;-60
2022/08/13 08:55:46;;;;;;;1.20;1.20;;;35.60;36.50;;;;;;5055131;28;20172;-60
2022/08/13 08:58:12;;;;;;;4.32;1.52;;;35.40;37.00;;;;;;5054513;28;20184;-60
2022/08/13 09:00:39;;;;;;;1.55;1.45;;;35.00;37.00;;;;;;5054835;28;20227;-60
2022/08/13 09:03:07;;;;;;;1.50;1.40;;;35.10;37.20;;;;;;5054571;28;20359;-60
2022/08/13 09:05:33;;;;;;;2.42;1.45;;;35.30;37.50;;;;;;5054369;28;20177;-59
2022/08/13 09:08:06;;;;;;;1.55;1.45;;;35.30;37.10;;;;;;5054193;28;20538;-60
2022/08/13 09:10:34;;;;;;;1.80;1.33;;;35.40;37.40;;;;;;5054406;28;20189;-60
2022/08/13 09:13:02;;;;;;;2.53;1.40;;;35.50;36.70;;;;;;5053815;28;20258;-60
2022/08/13 09:15:28;;;;;;;3.95;3.03;;;35.40;37.30;;;;;;5054637;28;20210;-60
2022/08/13 09:17:54;;;;;;;2.30;1.45;;;35.30;37.40;;;;;;5054151;28;20196;-60
2022/08/13 09:20:33;;;;;;;2.85;1.52;;;35.10;37.50;;;;;;5054023;28;20216;-60
2022/08/13 09:23:12;;;;;;;2.13;1.88;;;34.60;37.20;;;;;;5034550;28;20217;-60
2022/08/13 09:25:43;;;;;;;2.67;2.47;;;34.20;37.90;;;;;;5042840;28;20675;-60
2022/08/13 09:28:09;;;;;;;1.33;1.27;;;34.00;38.40;;;;;;5053723;28;20263;-60
2022/08/13 09:30:37;;;;;;;3.03;2.13;;;33.80;38.20;;;;;;5053901;28;20690;-59
2022/08/13 09:33:03;;;;;;;3.80;1.77;;;33.60;38.70;;;;;;5053883;28;20185;-60
2022/08/13 09:35:31;;;;;;;2.05;1.80;;;33.50;38.80;;;;;;5053684;28;20610;-59
2022/08/13 09:37:58;;;;;;;3.30;3.00;;;33.40;39.30;;;;;;5051964;28;20216;-60
2022/08/13 09:40:28;;;;;;;1.63;1.50;;;33.50;40.00;;;;;;5052816;28;20200;-60
2022/08/13 09:42:58;;;;;;;1.77;1.67;;;33.70;38.90;;;;;;5052809;28;20698;-60
2022/08/13 09:45:25;;;;;;;3.97;1.48;;;33.90;38.70;;;;;;5048617;28;20181;-60
2022/08/13 09:47:52;;;;;;;1.50;1.40;;;34.10;38.90;;;;;;5049653;28;20184;-60
2022/08/13 09:50:18;;;;;;;1.52;1.40;;;34.30;38.50;;;;;;5053752;28;20510;-61
2022/08/13 09:52:43;;;;;;;3.03;1.60;;;34.50;38.30;;;;;;5054414;28;20181;-62
2022/08/13 09:55:09;;;;;;;1.85;1.75;;;34.80;37.40;;;;;;5053910;28;20570;-61
2022/08/13 09:57:48;;;;;;;3.03;2.38;;;35.10;37.00;;;;;;5054034;28;20648;-61
2022/08/13 10:00:20;;;;;;;2.15;1.52;;;34.90;36.80;;;;;;5051325;28;20642;-61
2022/08/13 10:02:50;;;;;;;1.15;1.15;;;35.00;36.80;;;;;;5052507;28;20216;-61
2022/08/13 10:05:17;;;;;;;3.03;1.55;;;34.90;36.50;;;;;;5053651;28;20227;-61
2022/08/13 10:07:42;;;;;;;1.60;1.50;;;34.90;37.10;;;;;;5053857;28;20546;-61
2022/08/13 10:10:08;;;;;;;1.70;1.10;;;35.00;36.60;;;;;;5053896;28;20180;-62
2022/08/13 10:12:34;;;;;;;1.42;1.33;;;34.90;36.00;;;;;;5053542;28;20181;-61
2022/08/13 10:14:59;;;;;;;2.65;1.42;;;34.90;36.00;;;;;;5053439;28;20655;-62
2022/08/13 10:17:26;;;;;;;1.30;1.20;;;34.80;35.60;;;;;;5053704;28;20525;-61
2022/08/13 10:19:54;;;;;;;1.40;1.30;;;34.60;36.20;;;;;;5053473;28;20184;-62
2022/08/13 10:22:20;;;;;;;1.75;1.30;;;34.60;36.40;;;;;;5053448;28;20537;-62
2022/08/13 10:24:45;;;;;;;2.05;1.52;;;34.80;36.90;;;;;;5053560;28;20218;-62
2022/08/13 10:27:13;;;;;;;1.63;1.45;;;34.80;36.00;;;;;;5053457;28;20177;-62
2022/08/13 10:29:38;;;;;;;5.93;1.40;;;34.90;36.00;;;;;;5053510;28;20237;-62
2022/08/13 10:32:06;;;;;;;1.73;1.40;;;34.90;36.00;;;;;;5053282;28;20185;-61
2022/08/13 10:34:31;;;;;;;3.03;1.40;;;35.10;36.90;;;;;;5053537;28;20168;-61
2022/08/13 10:37:03;;;;;;;1.63;1.30;;;35.30;34.90;;;;;;5052990;28;20250;-61
2022/08/13 10:39:29;;;;;;;1.73;1.40;;;35.10;35.50;;;;;;5039101;28;20185;-62
2022/08/13 10:41:55;;;;;;;1.55;1.45;;;34.90;35.80;;;;;;5049435;28;20192;-62
2022/08/13 10:44:20;;;;;;;2.00;1.38;;;34.80;35.70;;;;;;5053095;28;20196;-61
2022/08/13 10:46:46;;;;;;;1.40;1.30;;;34.60;35.90;;;;;;5053257;28;20180;-62
2022/08/13 10:49:13;;;;;;;2.65;1.60;;;34.40;35.70;;;;;;5052912;28;20193;-61
2022/08/13 10:51:39;;;;;;;2.22;1.65;;;34.30;36.10;;;;;;5053034;28;20222;-61
2022/08/13 10:54:07;;;;;;;1.80;1.40;;;34.20;36.40;;;;;;5052882;28;20184;-61
2022/08/13 10:56:33;;;;;;;2.92;1.33;;;34.10;36.50;;;;;;5052891;28;20181;-61
2022/08/13 10:59:00;;;;;;;4.25;3.33;;;34.20;36.50;;;;;;5052906;28;20192;-61
2022/08/13 11:01:27;;;;;;;3.13;1.45;;;34.40;37.60;;;;;;5052653;28;20229;-61
2022/08/13 11:03:58;;;;;;;1.35;1.23;;;34.60;37.60;;;;;;5052821;28;20219;-62
2022/08/13 11:06:27;;;;;;;1.38;1.27;;;34.80;36.40;;;;;;5052744;28;20176;-62
2022/08/13 11:08:59;;;;;;;2.10;1.40;;;34.90;36.00;;;;;;5052877;28;20514;-62
2022/08/13 11:11:25;;;;;;;4.60;1.60;;;34.90;36.00;;;;;;5052532;28;20173;-62
2022/08/13 11:13:51;;;;;;;1.50;1.30;;;35.10;35.70;;;;;;5052099;28;20169;-62
2022/08/13 11:18:57;;;;;;;1.52;1.30;;;35.20;35.00;;;;;;5052617;28;20204;-62
2022/08/13 11:21:24;;;;;;;1.60;1.50;;;35.10;34.80;;;;;;5052297;28;20231;-61
2022/08/13 11:23:51;;;;;;;1.55;1.27;;;35.10;34.70;;;;;;5052517;28;20547;-61
2022/08/13 11:26:16;;;;;;;3.25;1.65;;;35.10;33.80;;;;;;5051778;28;20256;-61
2022/08/13 11:28:42;;;;;;;2.47;1.42;;;34.80;33.90;;;;;;5052507;28;20323;-61
2022/08/13 11:31:07;;;;;;;1.30;1.20;;;34.40;34.00;;;;;;5052377;28;20165;-62
2022/08/13 11:33:33;;;;;;;1.27;1.20;;;34.00;34.10;;;;;;5052639;28;20173;-61
2022/08/13 11:35:58;;;;;;;1.40;1.30;;;33.60;34.80;;;;;;5052289;28;20218;-61
2022/08/13 11:38:24;;;;;;;1.58;1.40;;;33.10;34.90;;;;;;5052338;28;20260;-61
2022/08/13 11:40:51;;;;;;;1.98;1.20;;;32.70;35.20;;;;;;5058131;28;20184;-61
2022/08/13 11:43:16;;;;;;;2.65;1.20;;;32.50;36.00;;;;;;5061787;28;20217;-62
2022/08/13 11:45:42;;;;;;;1.45;1.35;;;32.30;36.20;;;;;;5051973;28;20185;-60
2022/08/13 11:48:08;;;;;;;1.65;1.10;;;32.50;36.50;;;;;;5052065;28;20263;-60
2022/08/13 11:50:34;;;;;;;5.32;2.80;;;32.60;36.30;;;;;;5052115;28;20169;-60
2022/08/13 11:53:00;;;;;;;2.92;1.40;;;32.90;36.40;;;;;;5052022;28;20678;-60
2022/08/13 11:55:25;;;;;;;1.10;1.10;;;33.30;35.40;;;;;;5051854;28;20184;-60
2022/08/13 11:58:01;;;;;;;1.15;1.15;;;33.20;35.00;;;;;;5051739;28;20519;-60
2022/08/13 12:00:27;;;;;;;1.60;1.23;;;32.90;35.20;;;;;;5051904;28;20216;-59
2022/08/13 12:02:53;;;;;;;2.70;1.30;;;33.00;35.00;;;;;;5051633;28;20217;-60
2022/08/13 12:05:19;;;;;;;1.15;1.13;;;33.20;35.00;;;;;;5051657;28;20166;-60
2022/08/13 12:07:44;;;;;;;2.30;1.40;;;33.30;34.80;;;;;;5051562;28;20227;-60
2022/08/13 12:10:11;;;;;;;1.30;1.20;;;33.20;35.00;;;;;;5051186;28;20633;-60
2022/08/13 12:12:37;;;;;;;1.25;1.20;;;33.30;34.60;;;;;;5052953;28;20185;-60
2022/08/13 12:15:02;;;;;;;1.25;1.20;;;33.40;34.30;;;;;;5051755;28;20711;-60
2022/08/13 12:17:29;;;;;;;4.47;1.38;;;33.40;34.50;;;;;;5051694;28;20260;-60
2022/08/13 12:19:55;;;;;;;1.48;1.38;;;33.60;34.90;;;;;;5051575;28;20185;-60
2022/08/13 12:22:20;;;;;;;2.25;1.10;;;33.40;34.50;;;;;;5051775;28;20267;-60
2022/08/13 12:24:46;;;;;;;1.20;1.20;;;33.30;34.50;;;;;;5051663;28;20177;-60
2022/08/13 12:27:11;;;;;;;1.30;1.20;;;33.30;34.40;;;;;;5051206;28;20177;-60
2022/08/13 12:29:37;;;;;;;1.40;1.30;;;33.20;35.30;;;;;;5050384;28;20185;-60
2022/08/13 12:32:02;;;;;;;1.73;1.30;;;33.30;35.30;;;;;;5051292;28;20173;-61
2022/08/13 12:34:28;;;;;;;3.60;1.70;;;33.40;34.60;;;;;;5051074;28;20180;-60
2022/08/13 12:36:53;;;;;;;1.42;1.33;;;33.60;35.00;;;;;;5051814;28;20181;-61
2022/08/13 12:39:19;;;;;;;1.58;1.48;;;33.80;35.00;;;;;;5050951;28;20561;-60
2022/08/13 12:41:44;;;;;;;1.38;1.27;;;33.80;34.60;;;;;;5050311;28;20226;-59
2022/08/13 12:44:11;;;;;;;1.40;1.30;;;33.50;35.00;;;;;;5051375;28;20220;-60
2022/08/13 12:46:36;;;;;;;1.42;1.17;;;33.50;35.90;;;;;;5044139;28;20516;-60
2022/08/13 12:49:03;;;;;;;2.60;1.17;;;33.80;35.50;;;;;;5051504;28;20184;-60
2022/08/13 12:51:29;;;;;;;1.88;1.67;;;34.20;35.00;;;;;;5051443;28;20179;-60
2022/08/13 12:53:54;;;;;;;1.20;1.10;;;34.40;34.50;;;;;;5051202;28;20172;-60
2022/08/13 12:56:20;;;;;;;2.78;1.30;;;34.30;33.80;;;;;;5051335;28;20202;-59
2022/08/13 12:58:45;;;;;;;4.20;1.20;;;34.20;34.10;;;;;;5050932;28;20181;-60
2022/08/13 13:01:11;;;;;;;1.60;1.50;;;34.00;34.20;;;;;;5050532;28;20227;-59
2022/08/13 13:03:36;;;;;;;1.50;1.40;;;33.70;34.40;;;;;;5050565;28;20228;-60
2022/08/13 13:06:02;;;;;;;3.83;1.30;;;33.60;34.80;;;;;;5050618;28;20174;-60
2022/08/13 13:08:30;;;;;;;1.77;1.27;;;33.50;34.70;;;;;;5050677;28;20180;-59
2022/08/13 13:10:57;;;;;;;1.40;1.30;;;33.40;34.50;;;;;;5050327;28;20219;-60
2022/08/13 13:13:25;;;;;;;2.78;1.42;;;33.50;35.10;;;;;;5050157;28;20188;-60
2022/08/13 13:15:52;;;;;;;1.40;1.30;;;33.70;34.70;;;;;;5051189;28;20183;-61